VTSP/HKT METAR and TAF weather

Enter ICAO airport designator
Station Type Date Time Source
VTSP METAR 2019/12/08 11:30 UTC NOAA

VTSP 081130Z VRB05KT 9000 FEW020 26/20 Q1011 NOSIG


Station Type Date Time Source
VTSP Decoded METAR 2019/12/08 11:30 UTC NOAA

Phuket Airport, Thailand (VTSP) 08-07N 098-19E 10M
Dec 08, 2019 - 06:30 AM EST / 2019.12.08 1130 UTC
Wind: Variable at 6 MPH (5 KT):0
Visibility: 5 mile(s):0
Sky conditions: mostly clear
Temperature: 78 F (26 C)
Dew Point: 68 F (20 C)
Relative Humidity: 69%
Pressure (altimeter): 29.85 in. Hg (1011 hPa)
ob: VTSP 081130Z VRB05KT 9000 FEW020 26/20 Q1011 NOSIG
cycle: 11

Station Type Date Time Source
VTSP TAF 2019/12/08 12:36 UTC NOAA

TAF VTSP 081100Z 0812/0918 08008KT 9999 FEW020

Example: see airport list